Domov               UVHVVR             MKGP            O straneh              
ZDRAVSTVENO VARSTVO RASTLIN
  MREŽA AGROMET. POSTAJ
 ► PROGNOSTIČNA OBVESTILA
AGROMETEOROLOŠKI PODATKI -
ARSO
OBVLADOVANJE TVEGANJ ZARADI
NEUGODNIH VREMENSKIH RAZMER
  ► NARAVNE NESREČE
  ► SUŠA/MOČA
  ► NAMAKANJE
  ► ŽLED (gozdarstvo)
KARTOGRAFSKI PRIKAZI
SPLETNE POVEZAVE
PROJEKTI IN PUBLIKACIJE

AGROMETEOROLOŠKA MREŽA: VREMENSKE POSTAJE IN FENOLOŠKA OPAZOVANJA

Pregled podatkov za lokacijo Šentjernej APS, meteorološka postaja 49205

Pregled senzorjev na lokaciji

ID Ime Zadnja
vrednost
Datum
zadnje
spremembe
Tip
senzorja
3728 Temperatura 2 m ( °C) 11,51 °C 17.10.2017 23:30 50YA
3729 Relativna vlaga 2 m (% RH) 100 % RH 17.10.2017 23:30 50YA
3730 Omočenost lista (U) 10 U 17.10.2017 23:29 A730WET
3731 Sončno sevanje (W/m2) 0,34 W/m2 17.10.2017 23:30 Pyranometer SP-Lite
3733 Hitrost vetra (km/h) 4,28 km/h 17.10.2017 23:30 566.2S-176 (200km/h)
3734 Smer vetra (°) 231,46 ° 17.10.2017 23:29 566.2S-130
3735 Padavine 0.2 mm (mm) 0 mm 17.10.2017 23:30 Rain-O-Matic

Pregled podatkov zadnjih 24 ur

Zap.
št.
Datum in čas Šentjernej APS
Hitrost
vetra
Omočenost
lista
Padavine
0.2
mm
Relativna
vlaga
2
m
Smer
vetra
Sončno
sevanje
Temperatura
2
m
0 17.10.2017 22:30 4,28 10 0 100 231,46 0,34 11,51
1 17.10.2017 22:00 4,47 10 0 100 224,18 0,31 11,52
2 17.10.2017 21:30 4,25 10 0 100 220,99 0,37 11,8
3 17.10.2017 21:00 4,16 10 0 100 227,13 0,27 12,08
4 17.10.2017 20:30 4 10 0 99,4 225,25 0,31 12,53
5 17.10.2017 20:00 3,92 10 0 97,38 246,83 0,34 12,95
6 17.10.2017 19:30 3,84 10 0 96,18 229,37 0,4 13,35
7 17.10.2017 19:00 4,75 10 0 96,82 222,31 0,34 13,6
8 17.10.2017 18:30 5,06 10 0 97,16 221,22 0,34 14
9 17.10.2017 18:00 5,26 10 0 98,02 219,08 0,37 14,38
10 17.10.2017 17:30 4,81 10 0 96,69 225,37 1,74 15,28
11 17.10.2017 17:00 1,19 9 0 92,05 224,36 16,75 16,71
12 17.10.2017 16:30 0,07 2 0 89,15 225,05 47,7 18,09
13 17.10.2017 16:00 0,07 0 0 79,84 223,44 83,25 19,68
14 17.10.2017 15:30 2,9 0 0 66,49 167,3 132,39 20,9
15 17.10.2017 15:00 4,28 0 0 66,34 111,92 166,32 21,12
16 17.10.2017 14:30 4,65 0 0 65,09 90,38 255,65 21,46
17 17.10.2017 14:00 3,99 0 0 63,41 111,89 301,61 21,46
18 17.10.2017 13:30 3,56 0 0 65,35 68,85 355,99 21,16
19 17.10.2017 13:00 4,24 0 0 63,75 123,06 435,71 20,95
20 17.10.2017 12:30 3,6 0 0 64,66 105,9 484,5 20,41
21 17.10.2017 12:00 1,77 0 0 69,51 128,96 507,97 20,08
22 17.10.2017 11:30 2,7 0 0 75,47 159,34 523,6 19,16
23 17.10.2017 11:00 2,4 0 0 79,1 128,38 504,77 18,43
24 17.10.2017 10:30 0,56 7 0 84,06 36,92 493,26 17,39
25 17.10.2017 10:00 2,74 10 0 96,99 113,85 448 14,96
26 17.10.2017 09:30 4,1 10 0 100 105,39 378,12 13,7
27 17.10.2017 09:00 0,53 10 0 100 109,91 332,25 13,06
28 17.10.2017 08:30 0,07 10 0 100 23,3 227,82 11,2
29 17.10.2017 08:00 0,07 10 0 100 99,47 194,58 11,02
30 17.10.2017 07:30 0,07 10 0 100 234,68 101,41 9,29
31 17.10.2017 07:00 0,07 10 0 100 329,69 15,14 9,11
32 17.10.2017 06:30 0,07 10 0 100 218,13 4,76 9,15
33 17.10.2017 06:00 0,07 10 0 100 255,27 0,43 9,06
34 17.10.2017 05:30 0,07 10 0 100 344,42 0,37 9,07
35 17.10.2017 05:00 0,07 10 0 100 340,11 0,31 9,3
36 17.10.2017 04:30 0,07 10 0 100 269,09 0,31 9,61
37 17.10.2017 04:00 0,07 10 0 100 213,19 0,27 9,76
38 17.10.2017 03:30 0,07 10 0 100 18,34 0,34 10,06
39 17.10.2017 03:00 0,35 10 0 100 233,69 0,31 10,02
40 17.10.2017 02:30 3,54 10 0 100 239,64 0,31 10,1
41 17.10.2017 02:00 1,59 10 0 100 274,85 0,34 10,5
42 17.10.2017 01:30 0,27 10 0 100 338,18 0,34 10,52
43 17.10.2017 01:00 0,07 10 0 100 239,37 0,34 10,96
44 17.10.2017 00:30 0,07 10 0 100 243,46 0,37 11,09
© 2011 Ministrstvo za kmetijstvo, gozdarstvo in prehrano. Vse pravice pridržane.